createdAt,value
2018-07-23T00:00:36.920Z,0.00
2018-07-23T00:01:36.922Z,0.00
2018-07-23T00:02:36.986Z,0.00
2018-07-23T00:03:36.949Z,0.00
2018-07-23T00:04:36.968Z,0.00
2018-07-23T00:05:36.977Z,0.00
2018-07-23T00:06:36.997Z,0.00
2018-07-23T00:07:37.009Z,0.00
2018-07-23T00:08:37.010Z,0.00
2018-07-23T00:09:37.016Z,0.00
2018-07-23T00:10:37.050Z,0.00
2018-07-23T00:11:37.048Z,0.00
2018-07-23T00:12:37.064Z,0.00
2018-07-23T00:13:37.073Z,0.00
2018-07-23T00:14:37.089Z,0.00
2018-07-23T00:15:37.091Z,0.00
2018-07-23T00:16:37.113Z,0.00
2018-07-23T00:17:37.126Z,0.00
2018-07-23T00:18:37.139Z,0.00
2018-07-23T00:19:37.239Z,0.00
2018-07-23T00:20:37.162Z,0.00
2018-07-23T00:21:37.175Z,0.00
2018-07-23T00:22:37.188Z,0.00
2018-07-23T00:23:37.201Z,0.00
2018-07-23T00:24:37.216Z,0.00
2018-07-23T00:25:37.221Z,0.00
2018-07-23T00:26:37.237Z,0.00
2018-07-23T00:27:37.252Z,0.00
2018-07-23T00:28:37.263Z,0.00
2018-07-23T00:29:37.272Z,0.00
2018-07-23T00:30:37.287Z,0.00
2018-07-23T00:31:37.295Z,0.00
2018-07-23T00:32:37.306Z,0.00
2018-07-23T00:33:37.322Z,0.00
2018-07-23T00:34:37.336Z,0.00
2018-07-23T00:35:37.357Z,0.00
2018-07-23T00:36:37.380Z,0.00
2018-07-23T00:37:37.381Z,0.00
2018-07-23T00:38:37.389Z,0.00
2018-07-23T00:39:37.407Z,0.00
2018-07-23T00:40:37.422Z,0.00
2018-07-23T00:41:37.425Z,0.00
2018-07-23T00:42:37.436Z,0.00
2018-07-23T00:43:37.448Z,0.00
2018-07-23T00:44:37.464Z,0.00
2018-07-23T00:45:37.473Z,0.00
2018-07-23T00:46:37.490Z,0.00
2018-07-23T00:47:37.491Z,0.00
2018-07-23T00:48:37.508Z,0.00
2018-07-23T00:49:37.525Z,0.00
2018-07-23T00:50:37.537Z,0.00
2018-07-23T00:51:37.556Z,0.00
2018-07-23T00:52:37.564Z,0.00
2018-07-23T00:53:37.576Z,0.00
2018-07-23T00:54:37.589Z,0.00
2018-07-23T00:55:37.599Z,0.00
2018-07-23T00:56:37.608Z,0.00
2018-07-23T00:57:37.629Z,0.00
2018-07-23T00:58:37.641Z,0.00
2018-07-23T00:59:37.655Z,0.00
2018-07-23T01:00:37.663Z,0.00
2018-07-23T01:01:37.675Z,0.00
2018-07-23T01:02:37.687Z,0.00
2018-07-23T01:03:37.690Z,0.00
2018-07-23T01:04:37.711Z,0.00
2018-07-23T01:05:37.726Z,0.00
2018-07-23T01:06:37.732Z,0.00
2018-07-23T01:07:37.749Z,0.00
2018-07-23T01:08:37.757Z,0.00
2018-07-23T01:09:37.769Z,0.00
2018-07-23T01:10:37.781Z,0.00
2018-07-23T01:11:37.797Z,0.00
2018-07-23T01:12:37.808Z,0.00
2018-07-23T01:13:37.821Z,0.00
2018-07-23T01:14:37.835Z,0.00
2018-07-23T01:15:37.846Z,0.00
2018-07-23T01:16:37.858Z,0.00
2018-07-23T01:17:37.877Z,0.00
2018-07-23T01:18:37.894Z,0.00
2018-07-23T01:19:37.892Z,0.00
2018-07-23T01:20:37.900Z,0.00
2018-07-23T01:21:37.917Z,0.00
2018-07-23T01:22:37.932Z,0.00
2018-07-23T01:23:37.948Z,0.00
2018-07-23T01:24:37.951Z,0.00
2018-07-23T01:25:37.967Z,0.00
2018-07-23T01:26:37.984Z,0.00
2018-07-23T01:27:37.996Z,0.00
2018-07-23T01:28:38.005Z,0.00
2018-07-23T01:29:38.025Z,0.00
2018-07-23T01:30:38.030Z,0.00
2018-07-23T01:31:38.044Z,0.00
2018-07-23T01:32:38.047Z,0.00
2018-07-23T01:33:38.068Z,0.00
2018-07-23T01:34:38.079Z,0.00
2018-07-23T01:35:38.097Z,0.00
2018-07-23T01:36:38.103Z,0.00
2018-07-23T01:37:38.111Z,0.00
2018-07-23T01:38:38.132Z,0.00
2018-07-23T01:39:38.143Z,0.00
2018-07-23T01:40:38.150Z,0.00
2018-07-23T01:41:38.165Z,0.00
2018-07-23T01:42:38.172Z,0.00
2018-07-23T01:43:38.187Z,0.00
2018-07-23T01:44:38.204Z,0.00
2018-07-23T01:45:38.214Z,0.00
2018-07-23T01:46:38.223Z,0.00
2018-07-23T01:47:38.238Z,0.00
2018-07-23T01:48:38.248Z,0.00
2018-07-23T01:49:38.276Z,0.00
2018-07-23T01:51:38.292Z,0.00
2018-07-23T01:52:38.304Z,0.00
2018-07-23T01:53:38.306Z,0.00
2018-07-23T01:54:38.321Z,0.00
2018-07-23T01:55:38.335Z,0.00
2018-07-23T01:56:38.349Z,0.00
2018-07-23T01:57:38.357Z,0.00
2018-07-23T01:58:38.372Z,0.00
2018-07-23T01:59:38.402Z,0.00
2018-07-23T02:00:38.406Z,0.00
2018-07-23T02:01:38.410Z,0.00
2018-07-23T02:02:38.422Z,0.00
2018-07-23T02:03:38.447Z,0.00
2018-07-23T02:04:38.454Z,0.00
2018-07-23T02:05:38.459Z,0.00
2018-07-23T02:06:38.475Z,0.00
2018-07-23T02:07:38.482Z,0.00
2018-07-23T02:08:38.517Z,0.00
2018-07-23T02:09:38.518Z,0.00
2018-07-23T02:10:38.531Z,0.00
2018-07-23T02:11:38.543Z,0.00
2018-07-23T02:12:38.546Z,0.00
2018-07-23T02:13:38.552Z,0.00
2018-07-23T02:14:38.560Z,0.00
2018-07-23T02:15:38.583Z,0.00
2018-07-23T02:16:38.596Z,0.00
2018-07-23T02:17:38.598Z,0.00
2018-07-23T02:18:38.612Z,0.00
2018-07-23T02:19:38.617Z,0.00
2018-07-23T02:20:38.662Z,0.00
2018-07-23T02:21:38.661Z,0.00
2018-07-23T02:22:38.670Z,0.00
2018-07-23T02:23:38.674Z,0.00
2018-07-23T02:24:38.711Z,0.00
2018-07-23T02:25:38.709Z,0.00
2018-07-23T02:26:38.723Z,0.00
2018-07-23T02:27:38.728Z,0.00
2018-07-23T02:28:38.776Z,0.00
2018-07-23T02:29:38.749Z,0.00
2018-07-23T02:30:38.778Z,0.00
2018-07-23T02:31:38.786Z,0.00
2018-07-23T02:32:38.798Z,0.00
2018-07-23T02:33:38.804Z,0.00
2018-07-23T02:34:38.818Z,0.00
2018-07-23T02:35:38.845Z,0.00
2018-07-23T02:36:38.834Z,0.00
2018-07-23T02:37:38.856Z,0.00
2018-07-23T02:38:38.871Z,0.00
2018-07-23T02:39:38.874Z,0.00
2018-07-23T02:40:38.908Z,0.00
2018-07-23T02:41:38.910Z,0.00
2018-07-23T02:42:38.918Z,0.00
2018-07-23T02:43:38.920Z,0.00
2018-07-23T02:44:38.931Z,0.00
2018-07-23T02:45:38.981Z,0.00
2018-07-23T02:47:38.973Z,0.00
2018-07-23T02:48:38.985Z,0.00
2018-07-23T02:49:38.998Z,0.00
2018-07-23T02:50:39.019Z,0.00
2018-07-23T02:51:39.058Z,0.00
2018-07-23T02:52:39.046Z,0.00
2018-07-23T02:53:39.058Z,0.00
2018-07-23T02:54:39.082Z,0.00
2018-07-23T02:55:39.070Z,0.00
2018-07-23T02:56:39.095Z,0.00
2018-07-23T02:57:39.089Z,0.00
2018-07-23T02:58:39.113Z,0.00
2018-07-23T02:59:39.123Z,0.00
2018-07-23T03:00:39.129Z,0.00
2018-07-23T03:01:39.137Z,0.00
2018-07-23T03:02:39.169Z,0.00
2018-07-23T03:03:39.175Z,0.00
2018-07-23T03:04:39.185Z,0.00
2018-07-23T03:05:39.194Z,0.00
2018-07-23T03:06:39.215Z,0.00
2018-07-23T03:07:39.229Z,0.00
2018-07-23T03:08:39.227Z,0.00
2018-07-23T03:09:39.261Z,0.00
2018-07-23T03:10:39.273Z,0.00
2018-07-23T03:11:39.268Z,0.00
2018-07-23T03:12:39.275Z,0.00
2018-07-23T03:13:39.294Z,0.00
2018-07-23T03:14:39.303Z,0.00
2018-07-23T03:15:39.313Z,0.00
2018-07-23T03:16:39.327Z,0.00
2018-07-23T03:17:39.348Z,0.00
2018-07-23T03:18:39.343Z,0.00
2018-07-23T03:19:39.366Z,0.00
2018-07-23T03:20:39.369Z,0.00
2018-07-23T03:21:39.380Z,0.00
2018-07-23T03:22:39.396Z,0.00
2018-07-23T03:23:39.422Z,0.00
2018-07-23T03:24:39.428Z,0.00
2018-07-23T03:25:39.436Z,0.00
2018-07-23T03:26:39.440Z,0.00
2018-07-23T03:27:39.465Z,0.00
2018-07-23T03:28:39.470Z,0.00
2018-07-23T03:29:39.475Z,0.00
2018-07-23T03:30:39.495Z,0.00
2018-07-23T03:31:39.499Z,5.63
2018-07-23T03:32:39.512Z,5.63
2018-07-23T03:33:39.531Z,5.63
2018-07-23T03:34:39.542Z,5.63
2018-07-23T03:35:39.547Z,5.63
2018-07-23T03:36:39.567Z,5.63
2018-07-23T03:37:39.569Z,5.63
2018-07-23T03:38:39.577Z,5.63
2018-07-23T03:39:39.592Z,5.63
2018-07-23T03:40:39.596Z,5.63
2018-07-23T03:41:39.615Z,11.25
2018-07-23T03:42:39.627Z,11.25
2018-07-23T03:43:39.635Z,11.25
2018-07-23T03:44:39.656Z,11.25
2018-07-23T03:45:39.677Z,11.25
2018-07-23T03:46:39.687Z,11.25
2018-07-23T03:47:39.688Z,16.88
2018-07-23T03:48:39.700Z,16.88
2018-07-23T03:49:39.711Z,16.88
2018-07-23T03:50:39.728Z,16.88
2018-07-23T03:51:39.738Z,16.88
2018-07-23T03:52:39.763Z,22.50
2018-07-23T03:53:39.760Z,22.50
2018-07-23T03:54:39.768Z,22.50
2018-07-23T03:55:39.784Z,22.50
2018-07-23T03:56:39.796Z,22.50
2018-07-23T03:57:39.801Z,28.13
2018-07-23T03:58:39.812Z,28.13
2018-07-23T03:59:39.837Z,28.13
2018-07-23T04:00:39.839Z,33.75
2018-07-23T04:01:39.848Z,33.75
2018-07-23T04:02:39.862Z,33.75
2018-07-23T04:03:39.872Z,33.75
2018-07-23T04:04:39.885Z,39.38
2018-07-23T04:05:39.914Z,39.38
2018-07-23T04:06:39.918Z,39.38
2018-07-23T04:07:39.924Z,45.00
2018-07-23T04:08:39.932Z,45.00
2018-07-23T04:09:39.947Z,45.00
2018-07-23T04:10:39.979Z,50.63
2018-07-23T04:11:39.963Z,50.63
2018-07-23T04:12:39.982Z,50.63
2018-07-23T04:13:39.992Z,50.63
2018-07-23T04:14:40.008Z,56.25
2018-07-23T04:15:40.018Z,56.25
2018-07-23T04:16:40.026Z,61.88
2018-07-23T04:17:40.043Z,61.88
2018-07-23T04:18:40.052Z,61.88
2018-07-23T04:19:40.062Z,67.50
2018-07-23T04:20:40.070Z,67.50
2018-07-23T04:21:40.087Z,67.50
2018-07-23T04:22:40.102Z,73.13
2018-07-23T04:23:40.112Z,73.13
2018-07-23T04:24:40.135Z,78.75
2018-07-23T04:25:40.132Z,78.75
2018-07-23T04:26:40.140Z,78.75
2018-07-23T04:27:40.162Z,84.38
2018-07-23T04:28:40.164Z,84.38
2018-07-23T04:29:40.178Z,90.00
2018-07-23T04:30:40.191Z,90.00
2018-07-23T04:31:40.205Z,90.00
2018-07-23T04:32:40.212Z,95.63
2018-07-23T04:33:40.228Z,95.63
2018-07-23T04:34:40.241Z,95.63
2018-07-23T04:35:40.249Z,95.63
2018-07-23T04:36:40.260Z,95.63
2018-07-23T04:37:40.285Z,101.25
2018-07-23T04:38:40.283Z,101.25
2018-07-23T04:39:40.293Z,106.88
2018-07-23T04:40:40.313Z,106.88
2018-07-23T04:41:40.316Z,106.88
2018-07-23T04:42:40.330Z,112.50
2018-07-23T04:43:40.344Z,112.50
2018-07-23T04:44:40.351Z,118.13
2018-07-23T04:45:40.369Z,118.13
2018-07-23T04:46:40.394Z,123.75
2018-07-23T04:47:40.389Z,123.75
2018-07-23T04:48:40.400Z,123.75
2018-07-23T04:49:40.410Z,123.75
2018-07-23T04:50:40.471Z,123.75
2018-07-23T04:51:40.440Z,123.75
2018-07-23T04:52:40.448Z,123.75
2018-07-23T04:53:40.460Z,123.75
2018-07-23T04:54:40.475Z,112.50
2018-07-23T04:55:40.482Z,112.50
2018-07-23T04:56:40.530Z,112.50
2018-07-23T04:57:40.512Z,118.13
2018-07-23T04:58:40.524Z,118.13
2018-07-23T04:59:40.530Z,118.13
2018-07-23T05:00:40.539Z,118.13
2018-07-23T05:01:40.561Z,118.13
2018-07-23T05:02:40.573Z,118.13
2018-07-23T05:03:40.577Z,118.13
2018-07-23T05:04:40.587Z,118.13
2018-07-23T05:05:40.606Z,118.13
2018-07-23T05:06:40.614Z,118.13
2018-07-23T05:07:40.625Z,118.13
2018-07-23T05:10:40.660Z,135.00
2018-07-23T05:11:40.673Z,135.00
2018-07-23T05:12:40.686Z,146.25
2018-07-23T05:13:40.692Z,151.88
2018-07-23T05:14:40.709Z,180.00
2018-07-23T05:15:40.719Z,168.75
2018-07-23T05:16:40.733Z,168.75
2018-07-23T05:17:40.746Z,174.38
2018-07-23T05:18:40.771Z,180.00
2018-07-23T05:19:40.763Z,185.63
2018-07-23T05:20:40.780Z,180.00
2018-07-23T05:21:40.792Z,185.63
2018-07-23T05:22:40.810Z,180.00
2018-07-23T05:23:40.824Z,185.63
2018-07-23T05:24:40.825Z,185.63
2018-07-23T05:25:40.842Z,185.63
2018-07-23T05:26:42.846Z,185.63
2018-07-23T05:27:40.859Z,185.63
2018-07-23T05:28:40.873Z,191.25
2018-07-23T05:29:40.890Z,191.25
2018-07-23T05:30:40.904Z,196.88
2018-07-23T05:31:40.944Z,191.25
2018-07-23T05:32:40.919Z,196.88
2018-07-23T05:33:40.934Z,196.88
2018-07-23T05:34:40.946Z,196.88
2018-07-23T05:35:40.957Z,202.50
2018-07-23T05:36:40.974Z,202.50
2018-07-23T05:37:40.984Z,202.50
2018-07-23T05:38:41.043Z,202.50
2018-07-23T05:39:41.005Z,202.50
2018-07-23T05:40:41.016Z,208.13
2018-07-23T05:41:41.026Z,208.13
2018-07-23T05:42:41.043Z,208.13
2018-07-23T05:43:41.050Z,213.75
2018-07-23T05:44:41.066Z,219.38
2018-07-23T05:45:41.075Z,213.75
2018-07-23T05:46:41.088Z,213.75
2018-07-23T05:47:41.101Z,213.75
2018-07-23T05:48:41.109Z,213.75
2018-07-23T05:49:41.123Z,219.38
2018-07-23T05:50:41.134Z,213.75
2018-07-23T05:51:41.149Z,213.75
2018-07-23T05:52:41.160Z,213.75
2018-07-23T05:53:41.177Z,225.00
2018-07-23T05:54:41.182Z,219.38
2018-07-23T05:55:41.202Z,219.38
2018-07-23T05:56:41.203Z,225.00
2018-07-23T05:57:41.274Z,225.00
2018-07-23T05:58:41.232Z,230.63
2018-07-23T05:59:41.247Z,225.00
2018-07-23T06:00:41.254Z,225.00
2018-07-23T06:01:41.267Z,225.00
2018-07-23T06:02:41.284Z,225.00
2018-07-23T06:03:41.314Z,230.63
2018-07-23T06:04:41.375Z,230.63
2018-07-23T06:05:41.316Z,236.25
2018-07-23T06:06:41.394Z,230.63
2018-07-23T06:07:41.343Z,236.25
2018-07-23T06:08:41.361Z,236.25
2018-07-23T06:09:41.369Z,236.25
2018-07-23T06:10:41.379Z,236.25
2018-07-23T06:11:41.391Z,241.88
2018-07-23T06:12:41.410Z,241.88
2018-07-23T06:13:41.430Z,241.88
2018-07-23T06:14:41.434Z,247.50
2018-07-23T06:15:41.449Z,253.13
2018-07-23T06:16:41.457Z,247.50
2018-07-23T06:17:41.467Z,247.50
2018-07-23T06:18:41.479Z,258.75
2018-07-23T06:19:41.491Z,275.63
2018-07-23T06:20:41.522Z,258.75
2018-07-23T06:21:41.517Z,275.63
2018-07-23T06:22:41.526Z,292.50
2018-07-23T06:23:41.539Z,309.38
2018-07-23T06:24:41.554Z,309.38
2018-07-23T06:25:41.595Z,315.00
2018-07-23T06:26:41.585Z,320.63
2018-07-23T06:27:41.596Z,320.63
2018-07-23T06:28:41.610Z,320.63
2018-07-23T06:29:41.624Z,343.13
2018-07-23T06:31:41.657Z,331.88
2018-07-23T06:32:41.729Z,326.25
2018-07-23T06:33:41.676Z,326.25
2018-07-23T06:34:41.691Z,331.88
2018-07-23T06:35:41.699Z,337.50
2018-07-23T06:36:41.723Z,343.13
2018-07-23T06:37:41.793Z,365.63
2018-07-23T06:38:41.753Z,337.50
2018-07-23T06:39:41.778Z,343.13
2018-07-23T06:40:41.794Z,343.13
2018-07-23T06:41:41.804Z,343.13
2018-07-23T06:42:41.822Z,343.13
2018-07-23T06:43:41.835Z,354.38
2018-07-23T06:44:41.914Z,354.38
2018-07-23T06:45:41.868Z,348.75
2018-07-23T06:46:41.909Z,360.00
2018-07-23T06:47:41.899Z,360.00
2018-07-23T06:49:41.930Z,365.63
2018-07-23T06:50:41.943Z,365.63
2018-07-23T06:51:41.963Z,365.63
2018-07-23T06:52:41.978Z,371.25
2018-07-23T06:53:42.002Z,388.13
2018-07-23T06:54:42.011Z,382.50
2018-07-23T06:55:42.049Z,376.88
2018-07-23T06:56:42.054Z,382.50
2018-07-23T06:57:42.064Z,382.50
2018-07-23T06:58:42.068Z,388.13
2018-07-23T06:59:42.088Z,388.13
2018-07-23T07:00:42.145Z,382.50
2018-07-23T07:01:42.128Z,382.50
2018-07-23T07:02:42.142Z,388.13
2018-07-23T07:03:42.170Z,399.38
2018-07-23T07:04:42.182Z,399.38
2018-07-23T07:05:42.196Z,405.00
2018-07-23T07:06:42.212Z,405.00
2018-07-23T07:07:42.225Z,399.38
2018-07-23T07:08:42.250Z,416.25
2018-07-23T07:09:42.259Z,416.25
2018-07-23T07:10:42.272Z,405.00
2018-07-23T07:11:42.295Z,410.63
2018-07-23T07:12:42.325Z,410.63
2018-07-23T07:13:42.338Z,410.63
2018-07-23T07:14:42.367Z,421.88
2018-07-23T07:15:42.368Z,421.88
2018-07-23T07:16:42.373Z,421.88
2018-07-23T07:17:42.408Z,433.13
2018-07-23T07:18:42.409Z,427.50
2018-07-23T07:19:42.436Z,433.13
2018-07-23T07:20:42.454Z,433.13
2018-07-23T07:21:42.464Z,438.75
2018-07-23T07:22:42.516Z,438.75
2018-07-23T07:23:42.498Z,427.50
2018-07-23T07:24:42.517Z,433.13
2018-07-23T07:25:42.538Z,444.38
2018-07-23T07:26:42.557Z,444.38
2018-07-23T07:27:42.574Z,450.00
2018-07-23T07:28:42.587Z,450.00
2018-07-23T07:29:42.603Z,461.25
2018-07-23T07:30:42.618Z,450.00
2018-07-23T07:31:42.636Z,455.63
2018-07-23T07:32:42.653Z,455.63
2018-07-23T07:33:42.674Z,461.25
2018-07-23T07:34:42.700Z,461.25
2018-07-23T07:35:42.713Z,489.38
2018-07-23T07:36:42.724Z,472.50
2018-07-23T07:37:42.739Z,478.13
2018-07-23T07:38:42.760Z,466.88
2018-07-23T07:39:42.771Z,478.13
2018-07-23T07:40:42.798Z,489.38
2018-07-23T07:41:42.810Z,489.38
2018-07-23T07:42:42.833Z,500.63
2018-07-23T07:43:42.861Z,511.88
2018-07-23T07:44:42.868Z,523.13
2018-07-23T07:45:42.890Z,528.75
2018-07-23T07:46:42.907Z,556.88
2018-07-23T07:47:42.924Z,579.38
2018-07-23T07:48:42.932Z,585.00
2018-07-23T07:49:42.957Z,596.25
2018-07-23T07:50:42.965Z,607.50
2018-07-23T07:51:42.987Z,652.50
2018-07-23T07:52:43.009Z,663.75
2018-07-23T07:53:43.027Z,646.88
2018-07-23T07:54:43.056Z,675.00
2018-07-23T07:55:43.063Z,697.50
2018-07-23T07:56:43.081Z,714.38
2018-07-23T07:57:43.099Z,725.63
2018-07-23T07:58:43.115Z,759.38
2018-07-23T07:59:43.146Z,748.13
2018-07-23T08:00:43.152Z,753.75
2018-07-23T08:01:43.165Z,776.25
2018-07-23T08:02:43.187Z,787.50
2018-07-23T08:03:43.215Z,804.38
2018-07-23T08:04:43.225Z,798.75
2018-07-23T08:05:43.243Z,832.50
2018-07-23T08:06:43.257Z,826.88
2018-07-23T08:07:43.294Z,838.13
2018-07-23T08:08:43.297Z,838.13
2018-07-23T08:09:43.321Z,838.13
2018-07-23T08:10:43.337Z,860.63
2018-07-23T08:11:43.362Z,866.25
2018-07-23T08:12:43.381Z,894.38
2018-07-23T08:13:43.387Z,894.38
2018-07-23T08:14:43.409Z,900.00
2018-07-23T08:15:43.427Z,900.00
2018-07-23T08:16:43.460Z,922.50
2018-07-23T08:17:43.467Z,967.50
2018-07-23T08:18:43.515Z,961.88
2018-07-23T08:19:43.511Z,984.38
2018-07-23T08:20:43.525Z,1006.88
2018-07-23T08:21:43.544Z,1012.50
2018-07-23T08:22:43.571Z,1035.00
2018-07-23T08:23:43.579Z,1040.63
2018-07-23T08:24:43.604Z,1035.00
2018-07-23T08:25:43.624Z,1046.25
2018-07-23T08:26:43.638Z,1046.25
2018-07-23T08:27:43.679Z,1074.38
2018-07-23T08:28:43.678Z,1141.88
2018-07-23T08:29:43.710Z,1108.13
2018-07-23T08:30:43.720Z,1136.25
2018-07-23T08:31:43.808Z,1170.00
2018-07-23T08:32:43.755Z,1136.25
2018-07-23T08:33:43.769Z,1153.13
2018-07-23T08:34:43.795Z,1164.38
2018-07-23T08:35:43.809Z,1186.88
2018-07-23T08:36:43.826Z,1203.75
2018-07-23T08:37:43.850Z,1237.50
2018-07-23T08:38:43.874Z,1203.75
2018-07-23T08:39:43.893Z,1254.38
2018-07-23T08:40:43.920Z,1248.75
2018-07-23T08:41:43.926Z,1254.38
2018-07-23T08:42:43.950Z,1271.25
2018-07-23T08:43:43.960Z,1254.38
2018-07-23T08:44:43.988Z,1248.75
2018-07-23T08:45:44.007Z,1299.38
2018-07-23T08:46:44.032Z,1327.50
2018-07-23T08:47:44.054Z,1327.50
2018-07-23T08:48:44.064Z,1361.25
2018-07-23T08:49:44.084Z,1288.13
2018-07-23T08:50:44.110Z,1316.25
2018-07-23T08:51:44.128Z,1344.38
2018-07-23T08:52:44.144Z,1355.63
2018-07-23T08:53:44.211Z,1316.25
2018-07-23T08:54:44.185Z,1316.25
2018-07-23T08:55:44.218Z,1327.50
2018-07-23T08:56:44.227Z,1355.63
2018-07-23T08:57:44.253Z,1400.63
2018-07-23T08:58:44.267Z,1417.50
2018-07-23T09:00:44.313Z,1383.75
2018-07-23T09:01:44.326Z,1389.38
2018-07-23T09:02:44.347Z,1406.25
2018-07-23T09:03:44.363Z,1417.50
2018-07-23T09:04:44.379Z,1456.88
2018-07-23T09:05:44.413Z,1468.13
2018-07-23T09:06:44.427Z,1468.13
2018-07-23T09:07:44.448Z,1507.50
2018-07-23T09:08:44.466Z,1473.75
2018-07-23T09:09:44.476Z,1462.50
2018-07-23T09:10:44.505Z,1473.75
2018-07-23T09:11:44.519Z,1473.75
2018-07-23T09:12:44.549Z,1473.75
2018-07-23T09:13:44.570Z,1490.63
2018-07-23T09:14:44.588Z,1462.50
2018-07-23T09:15:44.637Z,1507.50
2018-07-23T09:16:44.630Z,1575.00
2018-07-23T09:17:44.649Z,1530.00
2018-07-23T09:18:44.661Z,1468.13
2018-07-23T09:19:44.687Z,1496.25
2018-07-23T09:20:44.703Z,1513.13
2018-07-23T09:21:44.731Z,1513.13
2018-07-23T09:22:44.759Z,1546.88
2018-07-23T09:23:44.774Z,1496.25
2018-07-23T09:24:44.798Z,1546.88
2018-07-23T09:25:44.820Z,1490.63
2018-07-23T09:26:44.841Z,1507.50
2018-07-23T09:27:44.852Z,1530.00
2018-07-23T09:28:44.876Z,1518.75
2018-07-23T09:29:44.891Z,1524.38
2018-07-23T09:30:44.917Z,1552.50
2018-07-23T09:31:44.932Z,1524.38
2018-07-23T09:32:44.963Z,1518.75
2018-07-23T09:33:44.981Z,1552.50
2018-07-23T09:34:45.003Z,1552.50
2018-07-23T09:35:45.013Z,1563.75
2018-07-23T09:36:45.043Z,1575.00
2018-07-23T09:37:45.064Z,1687.50
2018-07-23T09:38:45.081Z,1620.00
2018-07-23T09:39:45.089Z,1608.75
2018-07-23T09:40:45.123Z,1569.38
2018-07-23T09:41:45.144Z,1558.13
2018-07-23T09:42:45.161Z,1546.88
2018-07-23T09:43:45.184Z,1563.75
2018-07-23T09:44:45.204Z,1614.38
2018-07-23T09:45:45.227Z,1614.38
2018-07-23T09:46:45.247Z,1546.88
2018-07-23T09:47:45.264Z,1535.63
2018-07-23T09:48:45.284Z,1608.75
2018-07-23T09:50:45.332Z,1608.75
2018-07-23T09:51:45.353Z,1586.25
2018-07-23T09:52:45.414Z,1631.25
2018-07-23T09:53:45.395Z,1653.75
2018-07-23T09:54:45.420Z,1676.25
2018-07-23T09:55:45.433Z,1665.00
2018-07-23T09:56:45.460Z,1625.63
2018-07-23T09:57:45.488Z,1625.63
2018-07-23T09:58:45.503Z,1653.75
2018-07-23T09:59:45.520Z,1670.63
2018-07-23T10:00:45.538Z,1726.88
2018-07-23T10:01:45.554Z,1755.00
2018-07-23T10:02:45.593Z,1726.88
2018-07-23T10:03:45.599Z,1721.25
2018-07-23T10:04:45.632Z,1732.50
2018-07-23T10:05:45.658Z,1710.00
2018-07-23T10:06:45.670Z,1693.13
2018-07-23T10:07:45.685Z,1698.75
2018-07-23T10:08:45.707Z,1710.00
2018-07-23T10:09:45.741Z,1721.25
2018-07-23T10:10:45.759Z,1726.88
2018-07-23T10:12:45.797Z,1726.88
2018-07-23T10:13:45.825Z,1721.25
2018-07-23T10:14:45.839Z,1681.88
2018-07-23T10:15:45.862Z,1704.38
2018-07-23T10:16:45.922Z,1715.63
2018-07-23T10:17:45.911Z,1687.50
2018-07-23T10:18:45.925Z,1687.50
2018-07-23T10:19:45.941Z,1710.00
2018-07-23T10:20:45.963Z,1743.75
2018-07-23T10:21:45.985Z,1710.00
2018-07-23T10:22:46.007Z,1704.38
2018-07-23T10:23:46.027Z,1766.25
2018-07-23T10:24:46.050Z,1850.63
2018-07-23T10:25:46.071Z,1833.75
2018-07-23T10:26:46.094Z,1805.63
2018-07-23T10:27:46.120Z,1771.88
2018-07-23T10:28:46.137Z,1777.50
2018-07-23T10:29:46.164Z,1811.25
2018-07-23T10:30:46.182Z,1805.63
2018-07-23T10:31:46.202Z,1805.63
2018-07-23T10:32:46.222Z,1788.75
2018-07-23T10:33:46.242Z,1833.75
2018-07-23T10:34:46.269Z,1873.13
2018-07-23T10:35:46.289Z,1895.63
2018-07-23T10:36:46.307Z,1861.88
2018-07-23T10:37:46.338Z,1918.13
2018-07-23T10:38:46.358Z,1929.38
2018-07-23T10:39:46.377Z,1901.25
2018-07-23T10:40:46.409Z,1839.38
2018-07-23T10:41:46.423Z,1833.75
2018-07-23T10:42:46.445Z,1822.50
2018-07-23T10:43:46.478Z,1777.50
2018-07-23T10:44:46.494Z,1766.25
2018-07-23T10:45:46.510Z,1760.63
2018-07-23T10:46:46.586Z,1867.50
2018-07-23T10:47:46.588Z,1828.13
2018-07-23T10:48:46.589Z,1788.75
2018-07-23T10:49:46.593Z,1828.13
2018-07-23T10:50:46.621Z,1873.13
2018-07-23T10:51:46.640Z,1878.75
2018-07-23T10:52:46.661Z,1861.88
2018-07-23T10:53:46.676Z,1856.25
2018-07-23T10:54:46.710Z,1850.63
2018-07-23T10:55:46.734Z,1822.50
2018-07-23T10:56:46.754Z,1828.13
2018-07-23T10:57:46.780Z,1923.75
2018-07-23T10:58:46.796Z,1940.63
2018-07-23T10:59:46.813Z,1867.50
2018-07-23T11:00:46.844Z,1839.38
2018-07-23T11:01:46.857Z,1884.38
2018-07-23T11:02:46.883Z,1901.25
2018-07-23T11:03:46.902Z,1923.75
2018-07-23T11:04:46.923Z,1929.38
2018-07-23T11:05:46.948Z,1918.13
2018-07-23T11:06:46.970Z,1884.38
2018-07-23T11:07:46.993Z,2013.75
2018-07-23T11:08:47.014Z,2058.75
2018-07-23T11:09:47.033Z,1985.63
2018-07-23T11:10:47.058Z,1968.75
2018-07-23T11:11:47.090Z,1968.75
2018-07-23T11:12:47.169Z,1946.25
2018-07-23T11:13:47.122Z,1968.75
2018-07-23T11:14:47.143Z,1929.38
2018-07-23T11:15:47.167Z,2002.50
2018-07-23T11:16:47.186Z,2098.13
2018-07-23T11:17:47.213Z,2126.25
2018-07-23T11:18:47.238Z,2047.50
2018-07-23T11:19:47.253Z,1963.13
2018-07-23T11:20:47.275Z,1951.88
2018-07-23T11:21:47.295Z,1951.88
2018-07-23T11:22:47.403Z,1963.13
2018-07-23T11:23:47.340Z,1980.00
2018-07-23T11:24:47.415Z,2030.63
2018-07-23T11:26:47.406Z,1985.63
2018-07-23T11:27:47.428Z,1980.00
2018-07-23T11:28:47.445Z,2002.50
2018-07-23T11:29:47.473Z,1957.50
2018-07-23T11:30:47.496Z,1912.50
2018-07-23T11:31:47.524Z,1940.63
2018-07-23T11:32:47.543Z,1951.88
2018-07-23T11:33:47.561Z,1929.38
2018-07-23T11:34:47.587Z,1935.00
2018-07-23T11:35:47.604Z,1968.75
2018-07-23T11:36:47.623Z,1974.38
2018-07-23T11:37:47.648Z,2008.13
2018-07-23T11:38:47.664Z,1996.88
2018-07-23T11:39:47.692Z,1929.38
2018-07-23T11:40:47.713Z,1935.00
2018-07-23T11:41:47.738Z,1963.13
2018-07-23T11:42:47.839Z,1946.25
2018-07-23T11:43:47.776Z,1929.38
2018-07-23T11:44:47.801Z,1940.63
2018-07-23T11:45:47.828Z,1968.75
2018-07-23T11:46:47.846Z,1929.38
2018-07-23T11:47:47.872Z,1957.50
2018-07-23T11:48:47.895Z,2025.00
2018-07-23T11:49:47.921Z,2053.13
2018-07-23T11:50:47.962Z,2013.75
2018-07-23T11:51:47.956Z,1951.88
2018-07-23T11:52:47.976Z,2002.50
2018-07-23T11:53:48.008Z,1940.63
2018-07-23T11:54:48.019Z,1968.75
2018-07-23T11:55:48.046Z,2019.38
2018-07-23T11:56:48.092Z,1968.75
2018-07-23T11:57:48.118Z,1946.25
2018-07-23T11:58:48.112Z,1980.00
2018-07-23T11:59:48.123Z,1980.00
2018-07-23T12:00:48.156Z,1940.63
2018-07-23T12:01:48.216Z,1991.25
2018-07-23T12:02:48.208Z,2047.50
2018-07-23T12:03:48.222Z,2053.13
2018-07-23T12:04:48.244Z,2036.25
2018-07-23T12:05:48.283Z,2030.63
2018-07-23T12:06:48.293Z,2002.50
2018-07-23T12:07:48.333Z,2025.00
2018-07-23T12:08:48.338Z,1968.75
2018-07-23T12:09:48.374Z,1951.88
2018-07-23T12:10:48.380Z,1901.25
2018-07-23T12:12:48.425Z,1940.63
2018-07-23T12:13:48.449Z,1996.88
2018-07-23T12:14:48.480Z,2002.50
2018-07-23T12:15:48.494Z,1985.63
2018-07-23T12:16:48.515Z,1940.63
2018-07-23T12:17:48.536Z,1951.88
2018-07-23T12:18:48.560Z,1946.25
2018-07-23T12:19:48.588Z,1940.63
2018-07-23T12:20:48.608Z,1890.00
2018-07-23T12:21:48.638Z,1890.00
2018-07-23T12:22:48.658Z,1918.13
2018-07-23T12:23:48.675Z,1951.88
2018-07-23T12:25:48.723Z,1923.75
2018-07-23T12:26:48.745Z,1974.38
2018-07-23T12:27:48.764Z,1974.38
2018-07-23T12:28:48.788Z,1957.50
2018-07-23T12:29:48.808Z,1923.75
2018-07-23T12:30:48.831Z,1884.38
2018-07-23T12:31:48.860Z,1850.63
2018-07-23T12:32:48.884Z,1856.25
2018-07-23T12:33:48.899Z,1906.88
2018-07-23T12:35:48.952Z,1968.75
2018-07-23T12:36:48.971Z,1940.63
2018-07-23T12:37:49.001Z,1963.13
2018-07-23T12:38:49.019Z,1906.88
2018-07-23T12:39:49.131Z,1822.50
2018-07-23T12:40:49.062Z,1845.00
2018-07-23T12:41:49.101Z,1833.75
2018-07-23T12:42:49.110Z,1861.88
2018-07-23T12:44:49.167Z,1906.88
2018-07-23T12:45:49.189Z,1861.88
2018-07-23T12:46:49.199Z,1929.38
2018-07-23T12:48:49.252Z,1530.00
2018-07-23T12:49:49.273Z,1783.13
2018-07-23T12:50:49.306Z,1850.63